sensor_id;sensor_type;location;lat;lon;timestamp;P1;durP1;ratioP1;P2;durP2;ratioP2
72427;SDS011;60419;48.880;18.036;2023-06-04T00:01:47;7.40;;;3.00;;
72427;SDS011;60419;48.880;18.036;2023-06-04T00:04:32;6.38;;;2.55;;
72427;SDS011;60419;48.880;18.036;2023-06-04T00:07:17;5.03;;;2.45;;
72427;SDS011;60419;48.880;18.036;2023-06-04T00:10:03;5.18;;;2.60;;
72427;SDS011;60419;48.880;18.036;2023-06-04T00:12:50;6.20;;;2.75;;
72427;SDS011;60419;48.880;18.036;2023-06-04T00:15:35;7.38;;;3.13;;
72427;SDS011;60419;48.880;18.036;2023-06-04T00:18:20;6.78;;;3.20;;
72427;SDS011;60419;48.880;18.036;2023-06-04T00:21:06;6.22;;;2.88;;
72427;SDS011;60419;48.880;18.036;2023-06-04T00:23:51;8.00;;;2.90;;
72427;SDS011;60419;48.880;18.036;2023-06-04T00:26:37;6.10;;;3.50;;
72427;SDS011;60419;48.880;18.036;2023-06-04T00:29:22;8.00;;;3.67;;
72427;SDS011;60419;48.880;18.036;2023-06-04T00:32:07;9.27;;;3.50;;
72427;SDS011;60419;48.880;18.036;2023-06-04T00:34:53;8.25;;;3.50;;
72427;SDS011;60419;48.880;18.036;2023-06-04T00:37:40;8.90;;;3.35;;
72427;SDS011;60419;48.880;18.036;2023-06-04T00:40:25;6.25;;;2.78;;
72427;SDS011;60419;48.880;18.036;2023-06-04T00:43:11;6.45;;;2.92;;
72427;SDS011;60419;48.880;18.036;2023-06-04T00:45:58;4.90;;;3.10;;
72427;SDS011;60419;48.880;18.036;2023-06-04T00:48:44;7.07;;;3.20;;
72427;SDS011;60419;48.880;18.036;2023-06-04T00:51:30;5.38;;;2.80;;
72427;SDS011;60419;48.880;18.036;2023-06-04T00:54:16;7.57;;;3.13;;
72427;SDS011;60419;48.880;18.036;2023-06-04T00:57:02;5.32;;;2.95;;
72427;SDS011;60419;48.880;18.036;2023-06-04T00:59:49;5.55;;;2.80;;
72427;SDS011;60419;48.880;18.036;2023-06-04T01:02:37;7.50;;;2.88;;
72427;SDS011;60419;48.880;18.036;2023-06-04T01:05:26;6.40;;;3.00;;
72427;SDS011;60419;48.880;18.036;2023-06-04T01:08:19;6.03;;;3.30;;
72427;SDS011;60419;48.880;18.036;2023-06-04T01:11:05;5.28;;;2.63;;
72427;SDS011;60419;48.880;18.036;2023-06-04T01:13:50;6.03;;;2.90;;
72427;SDS011;60419;48.880;18.036;2023-06-04T01:16:41;5.28;;;2.92;;
72427;SDS011;60419;48.880;18.036;2023-06-04T01:25:37;5.82;;;2.70;;
72427;SDS011;60419;48.880;18.036;2023-06-04T01:28:24;6.35;;;3.08;;
72427;SDS011;60419;48.880;18.036;2023-06-04T01:31:11;6.80;;;3.10;;
72427;SDS011;60419;48.880;18.036;2023-06-04T01:33:58;5.18;;;2.78;;
72427;SDS011;60419;48.880;18.036;2023-06-04T01:36:44;7.70;;;3.22;;
72427;SDS011;60419;48.880;18.036;2023-06-04T01:39:29;6.25;;;3.10;;
72427;SDS011;60419;48.880;18.036;2023-06-04T01:42:15;7.97;;;3.30;;
72427;SDS011;60419;48.880;18.036;2023-06-04T01:45:00;7.57;;;3.10;;
72427;SDS011;60419;48.880;18.036;2023-06-04T01:47:46;5.38;;;2.70;;
72427;SDS011;60419;48.880;18.036;2023-06-04T01:50:31;6.05;;;2.80;;
72427;SDS011;60419;48.880;18.036;2023-06-04T01:53:17;6.88;;;2.55;;
72427;SDS011;60419;48.880;18.036;2023-06-04T01:56:03;5.07;;;2.80;;
72427;SDS011;60419;48.880;18.036;2023-06-04T01:58:48;6.20;;;3.40;;
72427;SDS011;60419;48.880;18.036;2023-06-04T02:01:34;6.00;;;2.72;;
72427;SDS011;60419;48.880;18.036;2023-06-04T02:04:19;5.63;;;2.90;;
72427;SDS011;60419;48.880;18.036;2023-06-04T02:07:06;5.70;;;3.22;;
72427;SDS011;60419;48.880;18.036;2023-06-04T02:09:51;5.68;;;2.90;;
72427;SDS011;60419;48.880;18.036;2023-06-04T02:12:38;6.45;;;2.97;;
72427;SDS011;60419;48.880;18.036;2023-06-04T02:15:25;7.13;;;2.90;;
72427;SDS011;60419;48.880;18.036;2023-06-04T02:18:15;5.97;;;3.00;;
72427;SDS011;60419;48.880;18.036;2023-06-04T02:21:02;6.25;;;3.10;;
72427;SDS011;60419;48.880;18.036;2023-06-04T02:23:47;5.63;;;3.00;;
72427;SDS011;60419;48.880;18.036;2023-06-04T02:26:32;5.65;;;2.85;;
72427;SDS011;60419;48.880;18.036;2023-06-04T02:29:18;5.65;;;3.28;;
72427;SDS011;60419;48.880;18.036;2023-06-04T02:32:03;7.68;;;2.80;;
72427;SDS011;60419;48.880;18.036;2023-06-04T02:34:49;6.18;;;3.20;;
72427;SDS011;60419;48.880;18.036;2023-06-04T02:37:35;7.30;;;3.30;;
72427;SDS011;60419;48.880;18.036;2023-06-04T02:40:20;5.72;;;3.05;;
72427;SDS011;60419;48.880;18.036;2023-06-04T02:43:05;6.97;;;2.80;;
72427;SDS011;60419;48.880;18.036;2023-06-04T02:45:51;6.60;;;3.28;;
72427;SDS011;60419;48.880;18.036;2023-06-04T02:48:36;5.93;;;2.90;;
72427;SDS011;60419;48.880;18.036;2023-06-04T02:51:21;8.48;;;3.50;;
72427;SDS011;60419;48.880;18.036;2023-06-04T02:54:07;5.88;;;3.38;;
72427;SDS011;60419;48.880;18.036;2023-06-04T02:56:52;7.00;;;3.50;;
72427;SDS011;60419;48.880;18.036;2023-06-04T02:59:38;6.03;;;3.33;;
72427;SDS011;60419;48.880;18.036;2023-06-04T03:02:23;6.80;;;3.25;;
72427;SDS011;60419;48.880;18.036;2023-06-04T03:05:10;7.20;;;2.72;;
72427;SDS011;60419;48.880;18.036;2023-06-04T03:07:57;5.80;;;2.90;;
72427;SDS011;60419;48.880;18.036;2023-06-04T03:10:44;11.75;;;3.47;;
72427;SDS011;60419;48.880;18.036;2023-06-04T03:13:29;5.90;;;2.80;;
72427;SDS011;60419;48.880;18.036;2023-06-04T03:16:15;4.80;;;2.80;;
72427;SDS011;60419;48.880;18.036;2023-06-04T03:19:00;6.35;;;3.05;;
72427;SDS011;60419;48.880;18.036;2023-06-04T03:21:46;6.88;;;2.90;;
72427;SDS011;60419;48.880;18.036;2023-06-04T03:24:35;8.90;;;3.38;;
72427;SDS011;60419;48.880;18.036;2023-06-04T03:27:21;5.93;;;2.75;;
72427;SDS011;60419;48.880;18.036;2023-06-04T03:30:07;5.75;;;2.85;;
72427;SDS011;60419;48.880;18.036;2023-06-04T03:32:53;7.25;;;3.10;;
72427;SDS011;60419;48.880;18.036;2023-06-04T03:35:40;5.15;;;2.80;;
72427;SDS011;60419;48.880;18.036;2023-06-04T03:38:26;6.88;;;3.50;;
72427;SDS011;60419;48.880;18.036;2023-06-04T03:41:11;5.82;;;3.00;;
72427;SDS011;60419;48.880;18.036;2023-06-04T03:43:57;7.72;;;3.30;;
72427;SDS011;60419;48.880;18.036;2023-06-04T03:46:43;6.43;;;3.35;;
72427;SDS011;60419;48.880;18.036;2023-06-04T03:49:29;7.18;;;3.30;;
72427;SDS011;60419;48.880;18.036;2023-06-04T03:52:14;5.72;;;2.97;;
72427;SDS011;60419;48.880;18.036;2023-06-04T03:55:00;8.05;;;3.55;;
72427;SDS011;60419;48.880;18.036;2023-06-04T03:57:46;8.05;;;3.55;;
72427;SDS011;60419;48.880;18.036;2023-06-04T04:00:31;7.30;;;3.30;;
72427;SDS011;60419;48.880;18.036;2023-06-04T04:03:17;7.38;;;3.42;;
72427;SDS011;60419;48.880;18.036;2023-06-04T04:06:03;7.22;;;3.20;;
72427;SDS011;60419;48.880;18.036;2023-06-04T04:08:48;6.30;;;3.60;;
72427;SDS011;60419;48.880;18.036;2023-06-04T04:11:33;8.27;;;3.40;;
72427;SDS011;60419;48.880;18.036;2023-06-04T04:14:19;6.13;;;3.30;;
72427;SDS011;60419;48.880;18.036;2023-06-04T04:17:05;6.32;;;2.92;;
72427;SDS011;60419;48.880;18.036;2023-06-04T04:19:51;4.85;;;2.83;;
72427;SDS011;60419;48.880;18.036;2023-06-04T04:22:39;5.38;;;2.67;;
72427;SDS011;60419;48.880;18.036;2023-06-04T04:25:26;6.10;;;3.17;;
72427;SDS011;60419;48.880;18.036;2023-06-04T04:28:12;6.97;;;2.78;;
72427;SDS011;60419;48.880;18.036;2023-06-04T04:30:57;7.13;;;2.53;;
72427;SDS011;60419;48.880;18.036;2023-06-04T04:33:44;7.38;;;2.78;;
72427;SDS011;60419;48.880;18.036;2023-06-04T04:36:30;9.07;;;3.40;;
72427;SDS011;60419;48.880;18.036;2023-06-04T04:39:22;6.07;;;3.28;;
72427;SDS011;60419;48.880;18.036;2023-06-04T04:42:08;4.60;;;2.58;;
72427;SDS011;60419;48.880;18.036;2023-06-04T04:44:53;5.40;;;2.63;;
72427;SDS011;60419;48.880;18.036;2023-06-04T04:47:38;6.47;;;2.90;;
72427;SDS011;60419;48.880;18.036;2023-06-04T04:50:24;6.93;;;2.95;;
72427;SDS011;60419;48.880;18.036;2023-06-04T04:53:09;6.68;;;2.72;;
72427;SDS011;60419;48.880;18.036;2023-06-04T04:55:55;5.63;;;2.70;;
72427;SDS011;60419;48.880;18.036;2023-06-04T04:58:40;4.35;;;2.10;;
72427;SDS011;60419;48.880;18.036;2023-06-04T05:01:26;5.10;;;2.40;;
72427;SDS011;60419;48.880;18.036;2023-06-04T05:04:12;7.90;;;2.05;;
72427;SDS011;60419;48.880;18.036;2023-06-04T05:06:57;4.60;;;2.40;;
72427;SDS011;60419;48.880;18.036;2023-06-04T05:09:43;5.90;;;2.47;;
72427;SDS011;60419;48.880;18.036;2023-06-04T05:12:29;4.57;;;2.40;;
72427;SDS011;60419;48.880;18.036;2023-06-04T05:15:16;5.00;;;2.40;;
72427;SDS011;60419;48.880;18.036;2023-06-04T05:18:03;4.70;;;2.45;;
72427;SDS011;60419;48.880;18.036;2023-06-04T05:20:48;4.93;;;2.67;;
72427;SDS011;60419;48.880;18.036;2023-06-04T05:23:34;6.65;;;2.45;;
72427;SDS011;60419;48.880;18.036;2023-06-04T05:26:22;6.25;;;2.53;;
72427;SDS011;60419;48.880;18.036;2023-06-04T05:29:10;5.63;;;2.45;;
72427;SDS011;60419;48.880;18.036;2023-06-04T05:31:56;6.72;;;2.70;;
72427;SDS011;60419;48.880;18.036;2023-06-04T05:34:41;6.38;;;2.72;;
72427;SDS011;60419;48.880;18.036;2023-06-04T05:37:27;4.82;;;2.35;;
72427;SDS011;60419;48.880;18.036;2023-06-04T05:40:13;5.20;;;2.95;;
72427;SDS011;60419;48.880;18.036;2023-06-04T05:42:59;5.90;;;2.47;;
72427;SDS011;60419;48.880;18.036;2023-06-04T05:45:45;5.63;;;2.50;;
72427;SDS011;60419;48.880;18.036;2023-06-04T05:48:30;8.05;;;2.50;;
72427;SDS011;60419;48.880;18.036;2023-06-04T05:51:15;5.57;;;2.45;;
72427;SDS011;60419;48.880;18.036;2023-06-04T05:54:01;5.15;;;2.40;;
72427;SDS011;60419;48.880;18.036;2023-06-04T05:56:46;5.25;;;2.70;;
72427;SDS011;60419;48.880;18.036;2023-06-04T05:59:32;6.75;;;2.35;;
72427;SDS011;60419;48.880;18.036;2023-06-04T06:02:17;5.50;;;2.30;;
72427;SDS011;60419;48.880;18.036;2023-06-04T06:05:03;5.97;;;2.25;;
72427;SDS011;60419;48.880;18.036;2023-06-04T06:07:48;7.03;;;2.40;;
72427;SDS011;60419;48.880;18.036;2023-06-04T06:10:34;7.05;;;2.63;;
72427;SDS011;60419;48.880;18.036;2023-06-04T06:13:20;8.27;;;2.50;;
72427;SDS011;60419;48.880;18.036;2023-06-04T06:16:05;6.28;;;2.45;;
72427;SDS011;60419;48.880;18.036;2023-06-04T06:18:51;6.80;;;2.30;;
72427;SDS011;60419;48.880;18.036;2023-06-04T06:21:37;5.82;;;2.15;;
72427;SDS011;60419;48.880;18.036;2023-06-04T06:24:22;5.40;;;2.28;;
72427;SDS011;60419;48.880;18.036;2023-06-04T06:27:07;4.85;;;1.90;;
72427;SDS011;60419;48.880;18.036;2023-06-04T06:29:53;4.78;;;2.20;;
72427;SDS011;60419;48.880;18.036;2023-06-04T06:32:38;5.22;;;2.33;;
72427;SDS011;60419;48.880;18.036;2023-06-04T06:35:24;6.50;;;2.03;;
72427;SDS011;60419;48.880;18.036;2023-06-04T06:38:09;6.00;;;2.60;;
72427;SDS011;60419;48.880;18.036;2023-06-04T06:40:55;5.30;;;2.03;;
72427;SDS011;60419;48.880;18.036;2023-06-04T06:43:40;5.55;;;2.42;;
72427;SDS011;60419;48.880;18.036;2023-06-04T06:46:25;4.22;;;2.10;;
72427;SDS011;60419;48.880;18.036;2023-06-04T06:49:11;5.50;;;2.03;;
72427;SDS011;60419;48.880;18.036;2023-06-04T06:51:56;5.32;;;2.30;;
72427;SDS011;60419;48.880;18.036;2023-06-04T06:54:41;3.70;;;2.42;;
72427;SDS011;60419;48.880;18.036;2023-06-04T06:57:27;4.88;;;1.88;;
72427;SDS011;60419;48.880;18.036;2023-06-04T07:00:12;4.32;;;2.15;;
72427;SDS011;60419;48.880;18.036;2023-06-04T07:02:58;4.80;;;2.17;;
72427;SDS011;60419;48.880;18.036;2023-06-04T07:05:43;5.30;;;2.20;;
72427;SDS011;60419;48.880;18.036;2023-06-04T07:08:29;3.92;;;1.80;;
72427;SDS011;60419;48.880;18.036;2023-06-04T07:11:14;3.28;;;1.75;;
72427;SDS011;60419;48.880;18.036;2023-06-04T07:14:01;5.90;;;1.83;;
72427;SDS011;60419;48.880;18.036;2023-06-04T07:16:47;4.72;;;2.20;;
72427;SDS011;60419;48.880;18.036;2023-06-04T07:19:32;4.50;;;2.10;;
72427;SDS011;60419;48.880;18.036;2023-06-04T07:22:18;3.63;;;1.80;;
72427;SDS011;60419;48.880;18.036;2023-06-04T07:25:03;5.43;;;1.98;;
72427;SDS011;60419;48.880;18.036;2023-06-04T07:27:50;3.90;;;1.52;;
72427;SDS011;60419;48.880;18.036;2023-06-04T07:30:35;5.13;;;1.92;;
72427;SDS011;60419;48.880;18.036;2023-06-04T07:33:22;6.20;;;2.10;;
72427;SDS011;60419;48.880;18.036;2023-06-04T07:36:09;3.60;;;2.10;;
72427;SDS011;60419;48.880;18.036;2023-06-04T07:38:55;3.53;;;1.83;;
72427;SDS011;60419;48.880;18.036;2023-06-04T07:41:40;6.95;;;2.15;;
72427;SDS011;60419;48.880;18.036;2023-06-04T07:44:26;4.15;;;1.88;;
72427;SDS011;60419;48.880;18.036;2023-06-04T07:47:11;4.40;;;1.80;;
72427;SDS011;60419;48.880;18.036;2023-06-04T07:49:57;3.22;;;1.65;;
72427;SDS011;60419;48.880;18.036;2023-06-04T07:52:42;3.90;;;1.90;;
72427;SDS011;60419;48.880;18.036;2023-06-04T07:55:28;4.47;;;1.67;;
72427;SDS011;60419;48.880;18.036;2023-06-04T07:58:13;3.83;;;1.48;;
72427;SDS011;60419;48.880;18.036;2023-06-04T08:00:59;3.80;;;1.92;;
72427;SDS011;60419;48.880;18.036;2023-06-04T08:03:44;10.48;;;1.60;;
72427;SDS011;60419;48.880;18.036;2023-06-04T08:06:29;5.38;;;1.90;;
72427;SDS011;60419;48.880;18.036;2023-06-04T08:09:15;3.90;;;1.52;;
72427;SDS011;60419;48.880;18.036;2023-06-04T08:12:00;4.93;;;2.10;;
72427;SDS011;60419;48.880;18.036;2023-06-04T08:14:46;5.03;;;2.20;;
72427;SDS011;60419;48.880;18.036;2023-06-04T08:17:31;4.40;;;1.77;;
72427;SDS011;60419;48.880;18.036;2023-06-04T08:20:17;5.32;;;1.70;;
72427;SDS011;60419;48.880;18.036;2023-06-04T08:23:02;3.78;;;1.80;;
72427;SDS011;60419;48.880;18.036;2023-06-04T08:25:47;3.88;;;1.80;;
72427;SDS011;60419;48.880;18.036;2023-06-04T08:28:33;4.30;;;1.73;;
72427;SDS011;60419;48.880;18.036;2023-06-04T08:31:18;3.40;;;1.70;;
72427;SDS011;60419;48.880;18.036;2023-06-04T08:34:05;4.78;;;1.55;;
72427;SDS011;60419;48.880;18.036;2023-06-04T08:36:50;3.75;;;1.63;;
72427;SDS011;60419;48.880;18.036;2023-06-04T08:39:36;5.13;;;2.10;;
72427;SDS011;60419;48.880;18.036;2023-06-04T08:42:22;4.53;;;1.80;;
72427;SDS011;60419;48.880;18.036;2023-06-04T08:47:58;5.40;;;1.80;;
72427;SDS011;60419;48.880;18.036;2023-06-04T08:50:45;4.07;;;1.52;;
72427;SDS011;60419;48.880;18.036;2023-06-04T08:53:33;3.67;;;1.58;;
72427;SDS011;60419;48.880;18.036;2023-06-04T08:56:21;7.82;;;1.50;;
72427;SDS011;60419;48.880;18.036;2023-06-04T08:59:07;6.60;;;1.92;;
72427;SDS011;60419;48.880;18.036;2023-06-04T09:01:55;4.50;;;1.73;;
72427;SDS011;60419;48.880;18.036;2023-06-04T09:04:42;4.65;;;1.80;;
72427;SDS011;60419;48.880;18.036;2023-06-04T09:07:28;3.80;;;1.60;;
72427;SDS011;60419;48.880;18.036;2023-06-04T09:10:17;3.78;;;1.77;;
72427;SDS011;60419;48.880;18.036;2023-06-04T09:13:04;6.38;;;1.67;;
72427;SDS011;60419;48.880;18.036;2023-06-04T09:16:00;4.68;;;1.40;;
72427;SDS011;60419;48.880;18.036;2023-06-04T09:18:49;5.07;;;1.40;;
72427;SDS011;60419;48.880;18.036;2023-06-04T09:21:45;4.95;;;2.00;;
72427;SDS011;60419;48.880;18.036;2023-06-04T09:24:44;6.38;;;3.03;;
72427;SDS011;60419;48.880;18.036;2023-06-04T09:27:38;2.92;;;1.55;;
72427;SDS011;60419;48.880;18.036;2023-06-04T09:30:27;4.05;;;1.40;;
72427;SDS011;60419;48.880;18.036;2023-06-04T09:33:13;4.78;;;1.50;;
72427;SDS011;60419;48.880;18.036;2023-06-04T09:35:58;3.60;;;1.70;;
72427;SDS011;60419;48.880;18.036;2023-06-04T09:38:44;2.42;;;1.15;;
72427;SDS011;60419;48.880;18.036;2023-06-04T09:41:30;4.43;;;1.90;;
72427;SDS011;60419;48.880;18.036;2023-06-04T09:44:16;3.33;;;1.60;;
72427;SDS011;60419;48.880;18.036;2023-06-04T09:47:01;6.32;;;2.25;;
72427;SDS011;60419;48.880;18.036;2023-06-04T09:49:47;4.78;;;1.40;;
72427;SDS011;60419;48.880;18.036;2023-06-04T09:52:34;3.47;;;1.70;;
72427;SDS011;60419;48.880;18.036;2023-06-04T09:55:20;6.72;;;1.98;;
72427;SDS011;60419;48.880;18.036;2023-06-04T09:58:07;3.20;;;1.40;;
72427;SDS011;60419;48.880;18.036;2023-06-04T10:00:53;5.50;;;1.50;;
72427;SDS011;60419;48.880;18.036;2023-06-04T10:03:41;3.22;;;1.35;;
72427;SDS011;60419;48.880;18.036;2023-06-04T10:06:34;5.85;;;1.60;;
72427;SDS011;60419;48.880;18.036;2023-06-04T10:09:21;4.68;;;1.70;;
72427;SDS011;60419;48.880;18.036;2023-06-04T10:12:08;2.65;;;1.40;;
72427;SDS011;60419;48.880;18.036;2023-06-04T10:14:56;5.00;;;2.05;;
72427;SDS011;60419;48.880;18.036;2023-06-04T10:17:46;4.05;;;1.70;;
72427;SDS011;60419;48.880;18.036;2023-06-04T10:20:33;4.50;;;1.42;;
72427;SDS011;60419;48.880;18.036;2023-06-04T10:23:19;4.22;;;1.40;;
72427;SDS011;60419;48.880;18.036;2023-06-04T10:26:07;2.75;;;1.20;;
72427;SDS011;60419;48.880;18.036;2023-06-04T10:28:53;3.15;;;1.52;;
72427;SDS011;60419;48.880;18.036;2023-06-04T10:31:42;4.35;;;1.50;;
72427;SDS011;60419;48.880;18.036;2023-06-04T10:34:27;3.72;;;1.50;;
72427;SDS011;60419;48.880;18.036;2023-06-04T10:37:22;2.47;;;1.58;;
72427;SDS011;60419;48.880;18.036;2023-06-04T10:40:10;3.30;;;1.40;;
72427;SDS011;60419;48.880;18.036;2023-06-04T10:42:56;3.50;;;1.40;;
72427;SDS011;60419;48.880;18.036;2023-06-04T10:45:49;5.28;;;1.40;;
72427;SDS011;60419;48.880;18.036;2023-06-04T10:48:34;5.47;;;1.50;;
72427;SDS011;60419;48.880;18.036;2023-06-04T10:54:23;3.33;;;1.38;;
72427;SDS011;60419;48.880;18.036;2023-06-04T10:57:13;3.70;;;1.50;;
72427;SDS011;60419;48.880;18.036;2023-06-04T11:00:00;3.83;;;1.70;;
72427;SDS011;60419;48.880;18.036;2023-06-04T11:02:55;4.00;;;1.67;;
72427;SDS011;60419;48.880;18.036;2023-06-04T11:05:42;3.63;;;1.42;;
72427;SDS011;60419;48.880;18.036;2023-06-04T11:08:29;3.67;;;1.60;;
72427;SDS011;60419;48.880;18.036;2023-06-04T11:11:16;2.13;;;1.35;;
72427;SDS011;60419;48.880;18.036;2023-06-04T11:14:08;3.05;;;1.40;;
72427;SDS011;60419;48.880;18.036;2023-06-04T11:16:54;3.42;;;1.52;;
72427;SDS011;60419;48.880;18.036;2023-06-04T11:19:39;6.00;;;1.73;;
72427;SDS011;60419;48.880;18.036;2023-06-04T11:22:25;3.95;;;1.50;;
72427;SDS011;60419;48.880;18.036;2023-06-04T11:25:10;3.28;;;1.33;;
72427;SDS011;60419;48.880;18.036;2023-06-04T11:27:56;4.07;;;1.50;;
72427;SDS011;60419;48.880;18.036;2023-06-04T11:30:42;3.45;;;1.40;;
72427;SDS011;60419;48.880;18.036;2023-06-04T11:33:27;2.78;;;1.35;;
72427;SDS011;60419;48.880;18.036;2023-06-04T11:36:23;5.80;;;1.70;;
72427;SDS011;60419;48.880;18.036;2023-06-04T11:39:12;2.70;;;1.50;;
72427;SDS011;60419;48.880;18.036;2023-06-04T11:42:03;4.63;;;1.50;;
72427;SDS011;60419;48.880;18.036;2023-06-04T11:44:55;3.23;;;1.50;;
72427;SDS011;60419;48.880;18.036;2023-06-04T11:47:46;6.43;;;1.60;;
72427;SDS011;60419;48.880;18.036;2023-06-04T11:50:33;3.85;;;1.73;;
72427;SDS011;60419;48.880;18.036;2023-06-04T11:53:20;3.03;;;1.50;;
72427;SDS011;60419;48.880;18.036;2023-06-04T11:56:05;3.35;;;1.70;;
72427;SDS011;60419;48.880;18.036;2023-06-04T11:58:51;3.33;;;1.42;;
72427;SDS011;60419;48.880;18.036;2023-06-04T12:01:42;4.50;;;1.60;;
72427;SDS011;60419;48.880;18.036;2023-06-04T12:04:29;4.25;;;1.23;;
72427;SDS011;60419;48.880;18.036;2023-06-04T12:07:19;4.22;;;1.75;;
72427;SDS011;60419;48.880;18.036;2023-06-04T12:10:09;5.00;;;1.60;;
72427;SDS011;60419;48.880;18.036;2023-06-04T12:12:56;3.97;;;1.60;;
72427;SDS011;60419;48.880;18.036;2023-06-04T12:15:42;4.20;;;1.52;;
72427;SDS011;60419;48.880;18.036;2023-06-04T12:18:27;4.57;;;1.67;;
72427;SDS011;60419;48.880;18.036;2023-06-04T12:21:24;4.63;;;1.60;;
72427;SDS011;60419;48.880;18.036;2023-06-04T12:24:13;8.15;;;1.95;;
72427;SDS011;60419;48.880;18.036;2023-06-04T12:27:05;5.40;;;1.88;;
72427;SDS011;60419;48.880;18.036;2023-06-04T12:29:56;4.90;;;1.73;;
72427;SDS011;60419;48.880;18.036;2023-06-04T12:32:44;5.13;;;1.80;;
72427;SDS011;60419;48.880;18.036;2023-06-04T12:35:30;4.45;;;1.60;;
72427;SDS011;60419;48.880;18.036;2023-06-04T12:38:15;6.28;;;1.83;;
72427;SDS011;60419;48.880;18.036;2023-06-04T12:41:01;3.53;;;1.80;;
72427;SDS011;60419;48.880;18.036;2023-06-04T12:43:46;3.88;;;1.70;;
72427;SDS011;60419;48.880;18.036;2023-06-04T12:46:32;4.82;;;1.92;;
72427;SDS011;60419;48.880;18.036;2023-06-04T12:49:17;4.55;;;1.55;;
72427;SDS011;60419;48.880;18.036;2023-06-04T12:52:03;4.10;;;1.70;;
72427;SDS011;60419;48.880;18.036;2023-06-04T12:54:49;4.28;;;1.90;;
72427;SDS011;60419;48.880;18.036;2023-06-04T12:57:34;3.30;;;1.70;;
72427;SDS011;60419;48.880;18.036;2023-06-04T13:00:20;4.15;;;1.80;;
72427;SDS011;60419;48.880;18.036;2023-06-04T13:03:05;3.55;;;1.75;;
72427;SDS011;60419;48.880;18.036;2023-06-04T13:05:50;4.18;;;1.92;;
72427;SDS011;60419;48.880;18.036;2023-06-04T13:08:36;5.95;;;2.50;;
72427;SDS011;60419;48.880;18.036;2023-06-04T13:11:22;5.15;;;1.65;;
72427;SDS011;60419;48.880;18.036;2023-06-04T13:14:08;4.40;;;1.83;;
72427;SDS011;60419;48.880;18.036;2023-06-04T13:16:54;4.57;;;1.80;;
72427;SDS011;60419;48.880;18.036;2023-06-04T13:19:40;3.10;;;1.75;;
72427;SDS011;60419;48.880;18.036;2023-06-04T13:22:25;7.05;;;2.00;;
72427;SDS011;60419;48.880;18.036;2023-06-04T13:25:10;4.50;;;2.10;;
72427;SDS011;60419;48.880;18.036;2023-06-04T13:27:56;2.83;;;1.70;;
72427;SDS011;60419;48.880;18.036;2023-06-04T13:30:41;3.35;;;2.20;;
72427;SDS011;60419;48.880;18.036;2023-06-04T13:33:27;4.95;;;1.88;;
72427;SDS011;60419;48.880;18.036;2023-06-04T13:36:12;3.53;;;1.80;;
72427;SDS011;60419;48.880;18.036;2023-06-04T13:38:58;7.38;;;3.55;;
72427;SDS011;60419;48.880;18.036;2023-06-04T13:41:43;6.93;;;1.70;;
72427;SDS011;60419;48.880;18.036;2023-06-04T13:44:29;3.50;;;1.77;;
72427;SDS011;60419;48.880;18.036;2023-06-04T13:47:14;3.88;;;2.13;;
72427;SDS011;60419;48.880;18.036;2023-06-04T13:50:00;4.78;;;1.92;;
72427;SDS011;60419;48.880;18.036;2023-06-04T13:52:45;6.03;;;2.15;;
72427;SDS011;60419;48.880;18.036;2023-06-04T13:55:31;4.78;;;2.00;;
72427;SDS011;60419;48.880;18.036;2023-06-04T13:58:16;3.28;;;1.77;;
72427;SDS011;60419;48.880;18.036;2023-06-04T14:01:01;5.13;;;2.28;;
72427;SDS011;60419;48.880;18.036;2023-06-04T14:03:47;4.13;;;1.88;;
72427;SDS011;60419;48.880;18.036;2023-06-04T14:06:32;4.55;;;1.90;;
72427;SDS011;60419;48.880;18.036;2023-06-04T14:09:20;3.38;;;1.95;;
72427;SDS011;60419;48.880;18.036;2023-06-04T14:12:06;4.70;;;2.60;;
72427;SDS011;60419;48.880;18.036;2023-06-04T14:14:52;4.53;;;2.20;;
72427;SDS011;60419;48.880;18.036;2023-06-04T14:17:38;3.50;;;2.28;;
72427;SDS011;60419;48.880;18.036;2023-06-04T14:20:23;4.32;;;2.20;;
72427;SDS011;60419;48.880;18.036;2023-06-04T14:23:09;6.68;;;2.60;;
72427;SDS011;60419;48.880;18.036;2023-06-04T14:25:56;6.15;;;3.33;;
72427;SDS011;60419;48.880;18.036;2023-06-04T14:28:42;5.45;;;2.65;;
72427;SDS011;60419;48.880;18.036;2023-06-04T14:31:27;10.63;;;2.83;;
72427;SDS011;60419;48.880;18.036;2023-06-04T14:34:13;6.97;;;2.50;;
72427;SDS011;60419;48.880;18.036;2023-06-04T14:36:59;5.93;;;2.70;;
72427;SDS011;60419;48.880;18.036;2023-06-04T14:39:44;5.20;;;2.97;;
72427;SDS011;60419;48.880;18.036;2023-06-04T14:42:30;5.65;;;2.50;;
72427;SDS011;60419;48.880;18.036;2023-06-04T14:45:15;5.07;;;2.97;;
72427;SDS011;60419;48.880;18.036;2023-06-04T14:48:01;6.32;;;3.50;;
72427;SDS011;60419;48.880;18.036;2023-06-04T14:50:46;4.28;;;2.55;;
72427;SDS011;60419;48.880;18.036;2023-06-04T14:53:32;4.97;;;2.75;;
72427;SDS011;60419;48.880;18.036;2023-06-04T14:56:17;5.05;;;2.47;;
72427;SDS011;60419;48.880;18.036;2023-06-04T14:59:03;3.75;;;2.35;;
72427;SDS011;60419;48.880;18.036;2023-06-04T15:01:53;4.57;;;2.45;;
72427;SDS011;60419;48.880;18.036;2023-06-04T15:04:39;5.38;;;2.75;;
72427;SDS011;60419;48.880;18.036;2023-06-04T15:07:29;4.32;;;2.40;;
72427;SDS011;60419;48.880;18.036;2023-06-04T15:10:14;4.97;;;2.33;;
72427;SDS011;60419;48.880;18.036;2023-06-04T15:13:00;4.07;;;2.40;;
72427;SDS011;60419;48.880;18.036;2023-06-04T15:15:45;4.60;;;2.53;;
72427;SDS011;60419;48.880;18.036;2023-06-04T15:18:31;3.67;;;2.13;;
72427;SDS011;60419;48.880;18.036;2023-06-04T15:21:16;4.70;;;2.42;;
72427;SDS011;60419;48.880;18.036;2023-06-04T15:24:01;5.35;;;2.33;;
72427;SDS011;60419;48.880;18.036;2023-06-04T15:26:47;5.00;;;2.72;;
72427;SDS011;60419;48.880;18.036;2023-06-04T15:29:32;7.43;;;2.50;;
72427;SDS011;60419;48.880;18.036;2023-06-04T15:32:18;5.35;;;2.80;;
72427;SDS011;60419;48.880;18.036;2023-06-04T15:35:03;5.13;;;2.85;;
72427;SDS011;60419;48.880;18.036;2023-06-04T15:37:49;6.32;;;2.60;;
72427;SDS011;60419;48.880;18.036;2023-06-04T15:40:35;5.00;;;3.00;;
72427;SDS011;60419;48.880;18.036;2023-06-04T15:43:20;7.63;;;2.67;;
72427;SDS011;60419;48.880;18.036;2023-06-04T15:46:05;9.10;;;2.55;;
72427;SDS011;60419;48.880;18.036;2023-06-04T15:48:51;5.18;;;2.63;;
72427;SDS011;60419;48.880;18.036;2023-06-04T15:51:36;5.30;;;2.83;;
72427;SDS011;60419;48.880;18.036;2023-06-04T15:54:22;5.00;;;2.33;;
72427;SDS011;60419;48.880;18.036;2023-06-04T15:57:07;4.25;;;2.33;;
72427;SDS011;60419;48.880;18.036;2023-06-04T15:59:53;5.70;;;2.83;;
72427;SDS011;60419;48.880;18.036;2023-06-04T16:02:38;4.85;;;2.53;;
72427;SDS011;60419;48.880;18.036;2023-06-04T16:05:23;4.03;;;2.40;;
72427;SDS011;60419;48.880;18.036;2023-06-04T16:08:09;4.97;;;2.50;;
72427;SDS011;60419;48.880;18.036;2023-06-04T16:10:55;5.10;;;1.90;;
72427;SDS011;60419;48.880;18.036;2023-06-04T16:13:40;4.93;;;2.22;;
72427;SDS011;60419;48.880;18.036;2023-06-04T16:16:26;5.72;;;2.30;;
72427;SDS011;60419;48.880;18.036;2023-06-04T16:19:11;5.88;;;2.42;;
72427;SDS011;60419;48.880;18.036;2023-06-04T16:21:57;4.88;;;2.40;;
72427;SDS011;60419;48.880;18.036;2023-06-04T16:24:43;4.22;;;2.70;;
72427;SDS011;60419;48.880;18.036;2023-06-04T16:27:28;6.00;;;2.70;;
72427;SDS011;60419;48.880;18.036;2023-06-04T16:30:14;6.85;;;2.95;;
72427;SDS011;60419;48.880;18.036;2023-06-04T16:33:01;6.53;;;3.45;;
72427;SDS011;60419;48.880;18.036;2023-06-04T16:35:46;7.47;;;3.03;;
72427;SDS011;60419;48.880;18.036;2023-06-04T16:38:32;5.22;;;2.90;;